Anacortes, Washington
Current Conditions -  °F | °C
As of 11:35 AM on Saturday 20 Dec 2014 (Local Time) from KBVS Reporting Station
Broken Clouds Broken Clouds  
Wind Chill: 43°   Ceiling: 3400
Heat Index: 48°   Visibility: 10mi
Dew Point: 43°   Wind: 14mph
Humidity: 82%   Direction: 100°E
Pressure: 29.57"   Gusts: NA
Location:  48.51°N, 122.61°W
Report Text: KBVS 201935Z AUTO 10012KT 10SM BKN034 09/06 A2957 RMK A01 P000
Loading
Personal Weather Stations






























Interactive Weather Map New forecast layout! Learn more

10-Day Weather Forecast

Advertisements
Track Severe Weather on mobile